createdAt,value
2018-06-13T00:00:22.779Z,18.16
2018-06-13T00:02:50.972Z,18.11
2018-06-13T00:05:19.233Z,18.01
2018-06-13T00:07:47.383Z,18.06
2018-06-13T00:10:15.559Z,18.00
2018-06-13T00:12:43.689Z,17.90
2018-06-13T00:15:11.932Z,17.91
2018-06-13T00:17:41.157Z,17.96
2018-06-13T00:20:09.403Z,17.75
2018-06-13T00:22:38.494Z,17.88
2018-06-13T00:25:07.031Z,17.83
2018-06-13T00:27:35.497Z,17.86
2018-06-13T00:30:04.009Z,17.77
2018-06-13T00:32:32.210Z,17.74
2018-06-13T00:35:01.588Z,17.70
2018-06-13T00:37:29.738Z,17.83
2018-06-13T00:39:58.060Z,17.65
2018-06-13T00:42:26.214Z,17.80
2018-06-13T00:44:54.745Z,17.90
2018-06-13T00:47:23.139Z,17.89
2018-06-13T00:49:51.269Z,17.95
2018-06-13T00:52:19.568Z,17.85
2018-06-13T00:54:47.850Z,17.70
2018-06-13T00:57:16.076Z,17.77
2018-06-13T00:59:44.219Z,17.81
2018-06-13T01:02:12.379Z,17.78
2018-06-13T01:04:40.518Z,17.87
2018-06-13T01:07:08.879Z,17.69
2018-06-13T01:09:37.070Z,17.61
2018-06-13T01:12:05.813Z,17.61
2018-06-13T01:14:34.048Z,17.39
2018-06-13T01:17:02.312Z,17.42
2018-06-13T01:19:30.724Z,17.40
2018-06-13T01:21:58.848Z,17.37
2018-06-13T01:24:27.303Z,17.38
2018-06-13T01:26:55.571Z,17.51
2018-06-13T01:29:24.123Z,17.22
2018-06-13T01:31:52.992Z,17.49
2018-06-13T01:34:21.350Z,17.50
2018-06-13T01:36:49.620Z,17.42
2018-06-13T01:39:17.764Z,17.48
2018-06-13T01:41:46.195Z,17.48
2018-06-13T01:44:14.398Z,17.29
2018-06-13T01:46:42.515Z,17.43
2018-06-13T01:49:10.773Z,17.69
2018-06-13T01:51:38.999Z,17.51
2018-06-13T01:54:07.600Z,17.44
2018-06-13T01:56:36.203Z,17.50
2018-06-13T01:59:04.344Z,17.43
2018-06-13T02:01:32.643Z,17.42
2018-06-13T02:04:01.182Z,17.42
2018-06-13T02:06:29.363Z,17.66
2018-06-13T02:08:57.689Z,17.27
2018-06-13T02:11:25.873Z,17.24
2018-06-13T02:13:54.016Z,17.33
2018-06-13T02:16:22.340Z,17.32
2018-06-13T02:18:50.956Z,17.21
2018-06-13T02:21:19.444Z,17.29
2018-06-13T02:23:47.910Z,17.35
2018-06-13T02:26:16.027Z,17.25
2018-06-13T02:28:44.329Z,17.36
2018-06-13T02:31:12.679Z,17.37
2018-06-13T02:33:41.087Z,17.35
2018-06-13T02:36:09.468Z,17.47
2018-06-13T02:38:37.540Z,17.44
2018-06-13T02:41:06.737Z,17.38
2018-06-13T02:43:34.900Z,17.24
2018-06-13T02:46:03.157Z,17.37
2018-06-13T02:48:31.433Z,17.38
2018-06-13T02:50:59.568Z,17.17
2018-06-13T02:53:27.691Z,17.22
2018-06-13T02:55:56.677Z,17.34
2018-06-13T02:58:25.639Z,17.14
2018-06-13T03:00:53.831Z,17.27
2018-06-13T03:03:22.614Z,17.28
2018-06-13T03:05:50.732Z,17.19
2018-06-13T03:08:18.884Z,17.42
2018-06-13T03:10:47.265Z,17.17
2018-06-13T03:13:15.425Z,17.35
2018-06-13T03:15:43.571Z,17.18
2018-06-13T03:18:11.807Z,17.10
2018-06-13T03:20:40.194Z,17.19
2018-06-13T03:23:09.081Z,17.18
2018-06-13T03:25:37.759Z,17.09
2018-06-13T03:28:06.368Z,17.01
2018-06-13T03:30:34.488Z,17.13
2018-06-13T03:33:02.668Z,17.28
2018-06-13T03:35:30.805Z,17.19
2018-06-13T03:37:58.956Z,17.10
2018-06-13T03:40:27.122Z,17.23
2018-06-13T03:42:55.350Z,17.16
2018-06-13T03:45:23.681Z,17.20
2018-06-13T03:47:51.961Z,17.19
2018-06-13T03:50:20.143Z,17.13
2018-06-13T03:52:48.347Z,16.97
2018-06-13T03:55:16.712Z,17.05
2018-06-13T03:57:44.888Z,17.14
2018-06-13T04:00:13.100Z,17.14
2018-06-13T04:02:41.337Z,17.07
2018-06-13T04:05:09.497Z,17.14
2018-06-13T04:07:37.762Z,17.02
2018-06-13T04:10:05.906Z,17.12
2018-06-13T04:12:34.061Z,17.09
2018-06-13T04:17:52.542Z,17.19
2018-06-13T04:20:21.770Z,17.16
2018-06-13T04:22:49.925Z,17.13
2018-06-13T04:25:18.182Z,16.94
2018-06-13T04:27:46.319Z,17.19
2018-06-13T04:30:14.404Z,17.26
2018-06-13T04:32:42.543Z,17.34
2018-06-13T04:35:11.893Z,17.31
2018-06-13T04:37:40.087Z,17.34
2018-06-13T04:40:09.297Z,17.31
2018-06-13T04:42:37.498Z,17.12
2018-06-13T04:45:05.758Z,17.05
2018-06-13T04:47:34.113Z,17.35
2018-06-13T04:50:02.338Z,17.35
2018-06-13T04:52:30.622Z,17.28
2018-06-13T04:54:58.844Z,17.39
2018-06-13T04:57:26.967Z,17.47
2018-06-13T04:59:55.134Z,17.45
2018-06-13T05:02:23.415Z,17.31
2018-06-13T05:04:51.578Z,17.61
2018-06-13T05:07:21.337Z,17.48
2018-06-13T05:09:49.491Z,17.29
2018-06-13T05:12:22.671Z,17.17
2018-06-13T05:14:51.835Z,17.20
2018-06-13T05:17:20.127Z,17.30
2018-06-13T05:19:48.268Z,17.33
2018-06-13T05:22:16.375Z,17.13
2018-06-13T05:24:44.837Z,17.34
2018-06-13T05:27:12.934Z,17.15
2018-06-13T05:29:41.058Z,17.34
2018-06-13T05:32:09.565Z,17.54
2018-06-13T05:34:37.705Z,17.47
2018-06-13T05:37:06.224Z,17.68
2018-06-13T05:39:34.411Z,17.56
2018-06-13T05:42:02.573Z,17.37
2018-06-13T05:44:30.820Z,17.56
2018-06-13T05:46:58.942Z,17.70
2018-06-13T05:49:27.149Z,17.74
2018-06-13T05:51:55.984Z,17.59
2018-06-13T05:54:24.124Z,17.78
2018-06-13T05:56:52.295Z,17.65
2018-06-13T05:59:21.004Z,17.42
2018-06-13T06:01:49.128Z,17.56
2018-06-13T06:04:17.248Z,17.50
2018-06-13T06:06:45.871Z,17.52
2018-06-13T06:09:13.943Z,17.51
2018-06-13T06:11:42.057Z,17.37
2018-06-13T06:14:10.609Z,17.51
2018-06-13T06:16:38.735Z,17.42
2018-06-13T06:19:06.828Z,17.47
2018-06-13T06:21:34.920Z,17.69
2018-06-13T06:24:03.409Z,17.63
2018-06-13T06:26:31.483Z,17.87
2018-06-13T06:28:59.543Z,18.11
2018-06-13T06:31:27.826Z,18.20
2018-06-13T06:33:55.976Z,18.23
2018-06-13T06:36:24.098Z,18.00
2018-06-13T06:38:52.481Z,18.01
2018-06-13T06:41:20.635Z,18.00
2018-06-13T06:43:48.906Z,17.87
2018-06-13T06:46:17.105Z,17.97
2018-06-13T06:48:45.277Z,18.17
2018-06-13T06:51:13.453Z,18.28
2018-06-13T06:53:41.594Z,18.18
2018-06-13T06:56:10.120Z,18.32
2018-06-13T06:58:38.349Z,18.11
2018-06-13T07:01:06.542Z,18.30
2018-06-13T07:03:34.643Z,18.13
2018-06-13T07:06:02.791Z,18.36
2018-06-13T07:08:30.917Z,18.32
2018-06-13T07:10:59.042Z,18.31
2018-06-13T07:13:27.230Z,18.46
2018-06-13T07:15:55.502Z,18.30
2018-06-13T07:18:23.688Z,18.59
2018-06-13T07:20:52.062Z,18.53
2018-06-13T07:23:20.180Z,18.87
2018-06-13T07:25:48.299Z,18.69
2018-06-13T07:28:16.439Z,18.54
2018-06-13T07:30:44.756Z,18.66
2018-06-13T07:33:12.922Z,18.37
2018-06-13T07:35:41.092Z,18.31
2018-06-13T07:38:10.504Z,18.18
2018-06-13T07:40:39.259Z,18.15
2018-06-13T07:43:08.001Z,18.25
2018-06-13T07:45:36.166Z,18.21
2018-06-13T07:48:04.310Z,18.23
2018-06-13T07:50:32.487Z,18.52
2018-06-13T07:53:00.744Z,18.53
2018-06-13T07:55:28.876Z,18.70
2018-06-13T07:57:56.978Z,18.92
2018-06-13T08:00:25.335Z,18.77
2018-06-13T08:02:53.559Z,18.81
2018-06-13T08:05:21.730Z,18.91
2018-06-13T08:07:50.106Z,19.08
2018-06-13T08:10:18.806Z,18.92
2018-06-13T08:12:47.109Z,18.82
2018-06-13T08:15:15.341Z,19.18
2018-06-13T08:17:43.497Z,19.09
2018-06-13T08:20:11.816Z,19.02
2018-06-13T08:22:40.711Z,19.16
2018-06-13T08:25:08.867Z,19.42
2018-06-13T08:27:47.055Z,19.28
2018-06-13T08:30:15.689Z,19.21
2018-06-13T08:32:43.850Z,19.47
2018-06-13T08:35:12.091Z,19.35
2018-06-13T08:37:40.661Z,19.59
2018-06-13T08:40:08.731Z,19.53
2018-06-13T08:42:36.960Z,19.29
2018-06-13T08:45:05.612Z,18.96
2018-06-13T08:47:33.695Z,18.72
2018-06-13T08:50:02.120Z,18.49
2018-06-13T08:52:30.491Z,18.87
2018-06-13T08:54:58.779Z,18.59
2018-06-13T08:57:27.381Z,18.49
2018-06-13T08:59:55.934Z,18.32
2018-06-13T09:02:24.319Z,18.68
2018-06-13T09:04:52.983Z,18.84
2018-06-13T09:07:21.244Z,18.87
2018-06-13T09:09:49.315Z,18.81
2018-06-13T09:12:18.631Z,18.97
2018-06-13T09:14:46.795Z,18.87
2018-06-13T09:17:17.232Z,19.17
2018-06-13T09:19:45.277Z,19.09
2018-06-13T09:22:13.598Z,18.94
2018-06-13T09:24:42.099Z,19.01
2018-06-13T09:27:10.875Z,18.81
2018-06-13T09:29:38.978Z,18.38
2018-06-13T09:32:07.943Z,18.89
2018-06-13T09:34:36.025Z,19.12
2018-06-13T09:37:04.187Z,18.86
2018-06-13T09:39:32.802Z,18.91
2018-06-13T09:42:02.074Z,18.86
2018-06-13T09:44:30.848Z,18.93
2018-06-13T09:47:06.906Z,19.06
2018-06-13T09:49:31.024Z,19.20
2018-06-13T09:51:59.177Z,19.20
2018-06-13T09:54:27.400Z,19.41
2018-06-13T09:56:55.520Z,19.45
2018-06-13T09:59:23.642Z,19.38
2018-06-13T10:01:57.110Z,19.22
2018-06-13T10:04:25.351Z,18.86
2018-06-13T10:06:54.175Z,18.81
2018-06-13T10:09:22.320Z,19.07
2018-06-13T10:11:50.504Z,19.02
2018-06-13T10:14:18.682Z,18.68
2018-06-13T10:16:46.920Z,19.03
2018-06-13T10:19:15.019Z,19.02
2018-06-13T10:21:43.135Z,19.07
2018-06-13T10:24:11.437Z,19.02
2018-06-13T10:26:39.610Z,19.24
2018-06-13T10:29:07.783Z,19.37
2018-06-13T10:31:36.069Z,19.46
2018-06-13T10:34:04.220Z,19.76
2018-06-13T10:36:32.947Z,20.02
2018-06-13T10:39:01.143Z,20.13
2018-06-13T10:41:29.372Z,20.35
2018-06-13T10:43:58.456Z,20.63
2018-06-13T10:46:26.591Z,20.69
2018-06-13T10:48:54.696Z,20.50
2018-06-13T10:51:22.896Z,20.21
2018-06-13T10:53:51.054Z,19.67
2018-06-13T10:56:19.701Z,19.57
2018-06-13T10:58:47.839Z,19.60
2018-06-13T11:01:15.943Z,19.43
2018-06-13T11:03:44.107Z,19.43
2018-06-13T11:06:12.672Z,19.31
2018-06-13T11:08:41.555Z,19.41
2018-06-13T11:11:10.648Z,19.18
2018-06-13T11:13:38.900Z,19.48
2018-06-13T11:16:07.236Z,19.69
2018-06-13T11:18:35.329Z,19.64
2018-06-13T11:21:03.800Z,20.00
2018-06-13T11:23:31.881Z,19.98
2018-06-13T11:25:59.976Z,19.69
2018-06-13T11:28:29.130Z,20.04
2018-06-13T11:30:57.239Z,20.72
2018-06-13T11:33:25.411Z,20.74
2018-06-13T11:35:53.579Z,20.98
2018-06-13T11:38:21.903Z,21.55
2018-06-13T11:40:50.040Z,20.51
2018-06-13T11:43:18.398Z,20.06
2018-06-13T11:45:47.597Z,20.31
2018-06-13T11:48:15.992Z,20.57
2018-06-13T11:50:44.317Z,20.76
2018-06-13T11:53:12.489Z,20.45
2018-06-13T11:55:41.837Z,20.37
2018-06-13T11:58:09.995Z,20.04
2018-06-13T12:00:38.103Z,19.89
2018-06-13T12:03:07.612Z,19.85
2018-06-13T12:05:36.416Z,19.70
2018-06-13T12:08:04.812Z,19.80
2018-06-13T12:10:33.024Z,19.65
2018-06-13T12:13:01.285Z,19.80
2018-06-13T12:15:29.880Z,19.95
2018-06-13T12:17:57.996Z,20.15
2018-06-13T12:20:26.144Z,19.94
2018-06-13T12:22:54.637Z,19.99
2018-06-13T12:25:23.182Z,20.06
2018-06-13T12:27:52.030Z,19.81
2018-06-13T12:30:20.170Z,19.70
2018-06-13T12:32:49.324Z,19.26
2018-06-13T12:35:17.444Z,19.67
2018-06-13T12:37:45.567Z,19.92
2018-06-13T12:40:13.823Z,19.51
2018-06-13T12:42:41.906Z,19.77
2018-06-13T12:45:10.653Z,19.77
2018-06-13T12:47:38.841Z,19.86
2018-06-13T12:50:07.091Z,20.28
2018-06-13T12:52:35.427Z,20.16
2018-06-13T12:55:07.568Z,20.11
2018-06-13T12:57:35.704Z,20.23
2018-06-13T13:00:04.235Z,20.62
2018-06-13T13:02:32.584Z,20.69
2018-06-13T13:05:01.404Z,20.37
2018-06-13T13:07:29.661Z,20.63
2018-06-13T13:09:57.762Z,21.22
2018-06-13T13:12:25.911Z,21.42
2018-06-13T13:14:54.231Z,20.98
2018-06-13T13:17:22.323Z,21.17
2018-06-13T13:19:50.633Z,20.91
2018-06-13T13:22:18.822Z,20.87
2018-06-13T13:24:47.024Z,20.79
2018-06-13T13:27:15.466Z,20.79
2018-06-13T13:29:43.795Z,21.20
2018-06-13T13:32:12.248Z,20.71
2018-06-13T13:34:40.457Z,20.79
2018-06-13T13:37:08.918Z,20.39
2018-06-13T13:39:37.049Z,20.01
2018-06-13T13:42:05.198Z,19.97
2018-06-13T13:44:33.750Z,19.89
2018-06-13T13:47:01.936Z,19.47
2018-06-13T13:49:30.097Z,19.59
2018-06-13T13:51:58.196Z,19.63
2018-06-13T13:54:26.395Z,20.04
2018-06-13T13:56:54.633Z,19.85
2018-06-13T13:59:22.802Z,20.18
2018-06-13T14:01:52.375Z,20.45
2018-06-13T14:04:20.715Z,20.23
2018-06-13T14:06:48.849Z,20.16
2018-06-13T14:09:17.511Z,20.46
2018-06-13T14:11:45.667Z,19.90
2018-06-13T14:14:13.951Z,20.12
2018-06-13T14:16:43.927Z,19.83
2018-06-13T14:19:12.220Z,19.82
2018-06-13T14:21:41.531Z,19.66
2018-06-13T14:24:09.799Z,19.75
2018-06-13T14:26:37.972Z,19.81
2018-06-13T14:29:06.111Z,19.86
2018-06-13T14:31:34.458Z,20.02
2018-06-13T14:34:02.628Z,20.03
2018-06-13T14:36:31.219Z,19.48
2018-06-13T14:38:59.344Z,19.79
2018-06-13T14:41:27.471Z,19.75
2018-06-13T14:43:56.088Z,19.65
2018-06-13T14:46:24.307Z,19.58
2018-06-13T14:48:52.469Z,19.71
2018-06-13T14:51:20.550Z,20.07
2018-06-13T14:53:48.673Z,20.27
2018-06-13T14:56:22.063Z,20.37
2018-06-13T14:58:50.422Z,20.03
2018-06-13T15:01:18.551Z,19.99
2018-06-13T15:03:46.643Z,19.91
2018-06-13T15:06:14.806Z,19.68
2018-06-13T15:08:42.978Z,19.61
2018-06-13T15:11:11.267Z,19.65
2018-06-13T15:13:39.768Z,19.90
2018-06-13T15:16:08.120Z,20.36
2018-06-13T15:18:36.234Z,19.97
2018-06-13T15:21:04.413Z,19.49
2018-06-13T15:23:32.560Z,19.26
2018-06-13T15:26:01.022Z,18.92
2018-06-13T15:28:29.816Z,19.10
2018-06-13T15:30:57.979Z,19.20
2018-06-13T15:33:26.321Z,18.90
2018-06-13T15:35:55.809Z,18.87
2018-06-13T15:38:24.302Z,18.88
2018-06-13T15:40:52.982Z,19.09
2018-06-13T15:43:21.637Z,18.84
2018-06-13T15:45:50.001Z,18.88
2018-06-13T15:48:18.254Z,18.88
2018-06-13T15:50:46.385Z,19.10
2018-06-13T15:53:14.606Z,18.83
2018-06-13T15:55:43.905Z,19.02
2018-06-13T15:58:12.886Z,19.23
2018-06-13T16:00:41.534Z,18.94
2018-06-13T16:03:09.864Z,19.29
2018-06-13T16:05:38.019Z,18.95
2018-06-13T16:08:06.272Z,18.75
2018-06-13T16:10:34.452Z,18.41
2018-06-13T16:13:02.606Z,18.82
2018-06-13T16:15:30.805Z,18.66
2018-06-13T16:17:58.951Z,18.73
2018-06-13T16:20:27.100Z,18.90
2018-06-13T16:22:55.402Z,18.69
2018-06-13T16:25:23.626Z,18.96
2018-06-13T16:27:51.955Z,18.83
2018-06-13T16:30:21.621Z,18.58
2018-06-13T16:32:50.597Z,18.70
2018-06-13T16:35:18.775Z,19.04
2018-06-13T16:37:46.951Z,19.01
2018-06-13T16:40:15.187Z,18.90
2018-06-13T16:42:43.358Z,18.90
2018-06-13T16:45:11.888Z,19.10
2018-06-13T16:47:40.512Z,18.99
2018-06-13T16:50:20.104Z,19.03
2018-06-13T16:53:05.200Z,19.04
2018-06-13T16:55:37.326Z,19.05
2018-06-13T16:58:05.502Z,19.05
2018-06-13T17:00:33.798Z,18.86
2018-06-13T17:03:02.060Z,18.85
2018-06-13T17:05:31.155Z,18.87
2018-06-13T17:07:59.296Z,18.98
2018-06-13T17:10:27.501Z,18.94
2018-06-13T17:12:55.659Z,18.69
2018-06-13T17:15:23.916Z,18.87
2018-06-13T17:17:52.067Z,19.22
2018-06-13T17:20:20.300Z,19.00
2018-06-13T17:22:48.524Z,18.98
2018-06-13T17:25:17.775Z,18.99
2018-06-13T17:27:46.204Z,18.91
2018-06-13T17:30:14.442Z,18.92
2018-06-13T17:32:43.727Z,19.16
2018-06-13T17:35:12.030Z,19.30
2018-06-13T17:37:40.157Z,19.18
2018-06-13T17:40:08.392Z,19.50
2018-06-13T17:42:37.885Z,19.46
2018-06-13T17:45:06.599Z,19.09
2018-06-13T17:47:34.733Z,18.72
2018-06-13T17:50:03.030Z,19.28
2018-06-13T17:52:31.184Z,19.28
2018-06-13T17:54:59.359Z,18.91
2018-06-13T17:57:27.895Z,18.83
2018-06-13T17:59:56.048Z,18.49
2018-06-13T18:02:24.195Z,18.60
2018-06-13T18:04:52.332Z,18.41
2018-06-13T18:07:20.487Z,18.52
2018-06-13T18:09:48.948Z,18.51
2018-06-13T18:12:17.330Z,18.71
2018-06-13T18:14:45.430Z,18.71
2018-06-13T18:17:13.632Z,18.59
2018-06-13T18:19:41.864Z,18.53
2018-06-13T18:22:10.080Z,18.59
2018-06-13T18:24:38.275Z,18.71
2018-06-13T18:27:06.553Z,18.72
2018-06-13T18:29:35.160Z,18.54
2018-06-13T18:32:03.595Z,18.44
2018-06-13T18:34:31.729Z,18.33
2018-06-13T18:37:00.263Z,18.39
2018-06-13T18:39:28.370Z,18.09
2018-06-13T18:42:17.357Z,18.21
2018-06-13T18:44:45.764Z,18.26
2018-06-13T18:47:14.230Z,18.19
2018-06-13T18:49:42.402Z,18.18
2018-06-13T18:52:10.600Z,18.02
2018-06-13T18:54:38.715Z,17.96
2018-06-13T18:57:06.819Z,18.06
2018-06-13T18:59:35.099Z,18.20
2018-06-13T19:02:03.474Z,18.12
2018-06-13T19:04:31.708Z,18.20
2018-06-13T19:06:59.775Z,18.19
2018-06-13T19:09:27.843Z,18.09
2018-06-13T19:11:55.963Z,18.35
2018-06-13T19:14:24.124Z,17.99
2018-06-13T19:16:52.450Z,17.74
2018-06-13T19:19:20.760Z,17.87
2018-06-13T19:21:49.033Z,17.58
2018-06-13T19:24:17.643Z,17.70
2018-06-13T19:26:46.462Z,17.95
2018-06-13T19:29:15.805Z,17.90
2018-06-13T19:31:43.899Z,18.01
2018-06-13T19:34:12.469Z,18.11
2018-06-13T19:36:40.885Z,18.13
2018-06-13T19:39:09.978Z,17.80
2018-06-13T19:41:38.157Z,17.85
2018-06-13T19:44:06.241Z,17.82
2018-06-13T19:46:34.355Z,17.67
2018-06-13T19:49:02.580Z,17.80
2018-06-13T19:51:30.771Z,17.99
2018-06-13T19:54:04.208Z,17.99
2018-06-13T19:56:33.213Z,17.82
2018-06-13T19:59:01.508Z,17.87
2018-06-13T20:01:30.146Z,18.03
2018-06-13T20:04:03.676Z,18.16
2018-06-13T20:06:31.683Z,18.20
2018-06-13T20:08:59.784Z,18.15
2018-06-13T20:11:27.889Z,18.05
2018-06-13T20:14:01.618Z,18.02
2018-06-13T20:16:46.539Z,18.19
2018-06-13T20:19:20.092Z,18.20
2018-06-13T20:21:48.173Z,18.28
2018-06-13T20:24:16.273Z,18.34
2018-06-13T20:26:50.322Z,18.40
2018-06-13T20:29:23.940Z,18.27
2018-06-13T20:31:52.053Z,18.35
2018-06-13T20:34:20.179Z,18.23
2018-06-13T20:36:48.286Z,18.16
2018-06-13T20:39:16.455Z,18.34
2018-06-13T20:41:44.675Z,18.31
2018-06-13T20:44:14.100Z,18.16
2018-06-13T20:46:42.732Z,18.13
2018-06-13T20:49:10.811Z,17.87
2018-06-13T20:51:38.899Z,18.14
2018-06-13T20:54:07.000Z,18.30
2018-06-13T20:56:35.128Z,18.33
2018-06-13T20:59:03.363Z,18.30
2018-06-13T21:01:31.560Z,18.06
2018-06-13T21:03:59.647Z,18.16
2018-06-13T21:06:28.760Z,18.13
2018-06-13T21:08:57.083Z,18.14
2018-06-13T21:11:26.328Z,18.09
2018-06-13T21:13:55.311Z,18.12
2018-06-13T21:16:23.587Z,18.17
2018-06-13T21:18:51.891Z,18.18
2018-06-13T21:21:20.507Z,18.15
2018-06-13T21:23:49.327Z,17.96
2018-06-13T21:26:17.428Z,18.00
2018-06-13T21:28:45.583Z,17.97
2018-06-13T21:31:14.840Z,18.01
2018-06-13T21:33:43.597Z,18.11
2018-06-13T21:36:13.432Z,18.29
2018-06-13T21:38:41.900Z,17.94
2018-06-13T21:41:10.276Z,18.02
2018-06-13T21:43:38.589Z,17.84
2018-06-13T21:46:08.181Z,17.75
2018-06-13T21:48:36.284Z,17.94
2018-06-13T21:51:04.355Z,18.09
2018-06-13T21:53:32.721Z,18.16
2018-06-13T21:56:00.911Z,18.24
2018-06-13T21:58:29.104Z,18.35
2018-06-13T22:00:57.560Z,18.45
2018-06-13T22:03:25.701Z,18.31
2018-06-13T22:05:54.496Z,18.24
2018-06-13T22:08:22.767Z,17.96
2018-06-13T22:10:51.334Z,18.03
2018-06-13T22:13:19.603Z,17.85
2018-06-13T22:15:47.696Z,17.87
2018-06-13T22:18:15.825Z,17.95
2018-06-13T22:20:44.565Z,17.86
2018-06-13T22:23:13.309Z,17.88
2018-06-13T22:25:41.499Z,17.89
2018-06-13T22:28:09.640Z,17.99
2018-06-13T22:30:38.148Z,17.69
2018-06-13T22:33:06.448Z,17.69
2018-06-13T22:35:34.641Z,17.93
2018-06-13T22:38:02.747Z,18.10
2018-06-13T22:40:32.000Z,17.95
2018-06-13T22:43:00.247Z,18.03
2018-06-13T22:45:28.572Z,17.88
2018-06-13T22:47:56.988Z,17.85
2018-06-13T22:50:25.203Z,18.04
2018-06-13T22:52:53.454Z,17.92
2018-06-13T22:55:21.643Z,17.69
2018-06-13T22:57:49.951Z,17.77
2018-06-13T23:00:38.925Z,18.02
2018-06-13T23:03:07.031Z,17.86
2018-06-13T23:05:37.497Z,17.79
2018-06-13T23:08:05.992Z,17.62
2018-06-13T23:10:34.164Z,17.81
2018-06-13T23:13:02.288Z,17.51
2018-06-13T23:15:30.457Z,17.38
2018-06-13T23:18:05.492Z,17.33
2018-06-13T23:20:33.631Z,17.60
2018-06-13T23:23:01.739Z,17.27
2018-06-13T23:25:29.814Z,17.49
2018-06-13T23:27:58.230Z,17.64
2018-06-13T23:30:26.510Z,17.61
2018-06-13T23:32:54.930Z,17.73
2018-06-13T23:35:23.127Z,17.77
2018-06-13T23:37:51.437Z,17.70
2018-06-13T23:40:19.622Z,17.75
2018-06-13T23:42:47.652Z,17.69
2018-06-13T23:45:15.807Z,17.67
2018-06-13T23:47:43.981Z,17.32
2018-06-13T23:50:12.228Z,17.46
2018-06-13T23:52:40.538Z,17.44
2018-06-13T23:55:08.667Z,17.56
2018-06-13T23:57:36.847Z,17.32
